Flight Track Log - Related Links

Times and Time Zones

All times are in EDT time to prevent confusion due to time zone crossing. See the HYD170 flight status page for this flight to view local times or setup timezone preferences in your user account.

Time Position Orientation Groundspeed Altitude Reporting Facility
EDT Latitude Longitude Course Direction KTS MPH feet Rate Location/Type
11:41AM 53.6413 -75.1815 81° East  Level FlightAware Approximate
11:42AM 53.6506 -75.0700 82° East  Level FlightAware Approximate
11:43AM 53.6598 -74.9584 82° East  Level FlightAware Approximate
11:44AM 53.6689 -74.8467 82° East  Level FlightAware Approximate
11:45AM 53.6779 -74.7350 82° East  Level FlightAware Approximate
11:46AM 53.6854 -74.6230 85° East  Level FlightAware Approximate
11:47AM 53.6906 -74.5106 85° East  Level FlightAware Approximate
11:48AM 53.6956 -74.3981 86° East  Level FlightAware Approximate
11:49AM 53.7011 -74.2858 83° East  Level FlightAware Approximate
11:50AM 53.7098 -74.1739 83° East  Level FlightAware Approximate
11:51AM 53.7167 -74.0618 90° East  Level FlightAware Approximate
11:52AM 53.7250 -73.9504 78° East  Level FlightAware Approximate
11:53AM 53.7367 -73.8396 78° East  Level FlightAware Approximate
11:54AM 53.7500 -73.7291 90° East  Level FlightAware Approximate
11:55AM 53.7500 -73.6667 90° East  Level FlightAware Approximate
11:56AM 53.7547 -73.6753 90° East  Level Estimated
11:57AM 53.7500 -73.6667 90° East  Level FlightAware Approximate
11:58AM 53.7547 -73.6753 90° East  Level Estimated
11:59AM 53.7500 -73.6667 90° East  Level FlightAware Approximate
12:00PM 53.7547 -73.6753 90° East  Level Estimated
12:01PM 53.7500 -73.6667 90° East  Level FlightAware Approximate
12:02PM 53.7547 -73.6753 90° East  Level Estimated
12:03PM 53.7500 -73.6667 90° East  Level FlightAware Approximate
12:04PM 53.7547 -73.6753 90° East  Level Estimated
12:05PM 53.7500 -73.6667 90° East  Level FlightAware Approximate
12:06PM 53.7547 -73.6753 90° East  Level Estimated
12:07PM 53.7500 -73.6667 90° East  Level FlightAware Approximate
12:08PM 53.7547 -73.6753 90° East  Level Estimated
12:09PM 53.7500 -73.6667 90° East  Level FlightAware Approximate
12:10PM 53.7547 -73.6753 90° East  Level Estimated

Login

Don't have an account? Register now (free) for customized features, flight alerts, and more!